Time;durP1;ratioP1;P1;durP2;ratioP2;P2;SDS_P1;SDS_P2;PMS_P1;PMS_P2;Temp;Humidity;BMP_temperature;BMP_pressure;BME280_temperature;BME280_humidity;BME280_pressure;Samples;Min_cycle;Max_cycle;Signal;HPM_P1;HPM_P2
2021/05/21 00:01:22;;;;;;;3.33;2.15;;;;;;;21.81;57.09;99221.73;1718218;82;21426;-73
2021/05/21 00:03:49;;;;;;;2.52;2.25;;;;;;;21.80;57.11;99220.89;1692282;83;21059;-71
2021/05/21 00:06:15;;;;;;;2.30;2.10;;;;;;;21.78;57.11;99224.92;1716510;82;21108;-72
2021/05/21 00:08:43;;;;;;;2.80;2.42;;;;;;;21.78;57.13;99231.69;1714601;81;21138;-71
2021/05/21 00:11:09;;;;;;;2.45;2.25;;;;;;;21.75;57.12;99225.42;1727396;82;21106;-72
2021/05/21 00:13:36;;;;;;;2.33;2.10;;;;;;;21.74;57.13;99225.97;1746569;81;21053;-71
2021/05/21 00:16:04;;;;;;;2.75;2.30;;;;;;;21.73;57.17;99230.27;1741857;81;21065;-72
2021/05/21 00:18:31;;;;;;;2.42;2.20;;;;;;;21.72;57.15;99232.70;1734222;81;21127;-70
2021/05/21 00:20:58;;;;;;;3.17;2.45;;;;;;;21.71;57.16;99235.11;1719198;81;21093;-70
2021/05/21 00:23:25;;;;;;;3.50;2.40;;;;;;;21.70;57.20;99238.91;1715113;81;21109;-70
2021/05/21 00:25:51;;;;;;;2.58;2.27;;;;;;;21.67;57.21;99236.19;1737183;81;21087;-73
2021/05/21 00:28:17;;;;;;;2.72;2.40;;;;;;;21.67;57.23;99246.16;1734405;81;21099;-73
2021/05/21 00:30:44;;;;;;;2.80;2.47;;;;;;;21.66;57.24;99243.19;1738860;81;21665;-71
2021/05/21 00:33:10;;;;;;;3.45;2.22;;;;;;;21.64;57.26;99238.03;1745343;81;21072;-71
2021/05/21 00:35:37;;;;;;;2.60;2.20;;;;;;;21.64;57.25;99248.84;1744281;81;21111;-72
2021/05/21 00:38:05;;;;;;;2.58;2.37;;;;;;;21.63;57.26;99249.89;1746372;81;21047;-71
2021/05/21 00:40:32;;;;;;;3.00;2.40;;;;;;;21.62;57.28;99250.17;1752835;81;21072;-71
2021/05/21 00:42:58;;;;;;;2.80;2.50;;;;;;;21.60;57.30;99249.88;1750191;81;21078;-72
2021/05/21 00:45:25;;;;;;;3.08;2.77;;;;;;;21.61;57.31;99252.03;1734496;81;21668;-71
2021/05/21 00:47:51;;;;;;;2.30;2.10;;;;;;;21.58;57.34;99251.20;1738969;81;21048;-72
2021/05/21 00:50:18;;;;;;;3.62;2.58;;;;;;;21.57;57.34;99250.91;1735337;81;21019;-73
2021/05/21 00:52:45;;;;;;;3.42;2.58;;;;;;;21.56;57.36;99254.70;1743090;81;21569;-74
2021/05/21 00:55:12;;;;;;;3.33;2.55;;;;;;;21.54;57.36;99257.65;1732891;81;21147;-72
2021/05/21 00:57:43;;;;;;;2.45;2.22;;;;;;;21.53;57.37;99256.00;1738586;81;21059;-73
2021/05/21 01:00:11;;;;;;;2.75;2.47;;;;;;;21.53;57.39;99264.65;1738745;81;21152;-71
2021/05/21 01:02:37;;;;;;;2.70;2.22;;;;;;;21.50;57.41;99260.58;1709364;83;21056;-73
2021/05/21 01:05:06;;;;;;;3.25;2.47;;;;;;;21.50;57.40;99263.27;1740920;82;21033;-72
2021/05/21 01:07:34;;;;;;;3.05;2.37;;;;;;;21.48;57.43;99261.36;1722688;82;21094;-72
2021/05/21 01:10:01;;;;;;;2.98;2.02;;;;;;;21.47;57.42;99265.66;1724476;82;21088;-72
2021/05/21 01:12:27;;;;;;;2.35;2.10;;;;;;;21.46;57.43;99261.31;1726855;82;21156;-69
2021/05/21 01:14:56;;;;;;;2.50;2.25;;;;;;;21.45;57.46;99268.61;1720828;82;21040;-68
2021/05/21 01:17:23;;;;;;;3.08;2.77;;;;;;;21.45;57.45;99266.45;1741862;82;21060;-70
2021/05/21 01:19:50;;;;;;;2.62;2.42;;;;;;;21.40;57.47;99259.05;1733145;81;21116;-71
2021/05/21 01:22:18;;;;;;;2.35;2.12;;;;;;;21.44;57.48;99266.15;1738595;81;21097;-71
2021/05/21 01:24:45;;;;;;;2.35;2.12;;;;;;;21.43;57.50;99263.15;1745414;81;21106;-71
2021/05/21 01:27:12;;;;;;;2.47;2.08;;;;;;;21.41;57.49;99265.55;1738189;81;21089;-71
2021/05/21 01:29:39;;;;;;;2.50;2.08;;;;;;;21.39;57.49;99261.48;1747396;81;21110;-70
2021/05/21 01:32:08;;;;;;;2.12;1.92;;;;;;;21.41;57.48;99260.69;1738684;81;21050;-71
2021/05/21 01:34:38;;;;;;;2.72;2.00;;;;;;;21.40;57.50;99272.55;1756166;81;21057;-70
2021/05/21 01:37:17;;;;;;;2.25;2.05;;;;;;;21.41;57.49;99270.15;1758536;81;21862;-70
2021/05/21 01:39:44;;;;;;;2.15;1.85;;;;;;;21.40;57.47;99268.50;1734853;81;21108;-70
2021/05/21 01:42:14;;;;;;;2.25;2.05;;;;;;;21.39;57.47;99275.80;1734675;81;21080;-70
2021/05/21 01:44:41;;;;;;;3.22;1.95;;;;;;;21.40;57.47;99280.66;1749022;81;21102;-71
2021/05/21 01:47:09;;;;;;;2.35;2.15;;;;;;;21.41;57.43;99276.91;1763929;81;21054;-71
2021/05/21 01:49:36;;;;;;;2.15;1.95;;;;;;;21.41;57.42;99278.25;1740624;81;21589;-72
2021/05/21 01:52:03;;;;;;;2.15;1.95;;;;;;;21.41;57.39;99285.82;1764428;81;21053;-71
2021/05/21 01:54:31;;;;;;;2.05;1.72;;;;;;;21.41;57.35;99290.41;1764645;80;21053;-71
2021/05/21 01:56:58;;;;;;;1.90;1.60;;;;;;;21.41;57.33;99290.41;1730547;81;21058;-69
2021/05/21 01:59:25;;;;;;;1.72;1.62;;;;;;;21.40;57.34;99286.91;1764557;80;21575;-69
2021/05/21 02:01:53;;;;;;;1.77;1.67;;;;;;;21.40;57.34;99296.88;1764575;80;21096;-70
2021/05/21 02:04:29;;;;;;;2.10;1.90;;;;;;;21.41;57.32;99297.98;1753991;80;21091;-69
2021/05/21 02:06:55;;;;;;;1.72;1.62;;;;;;;21.42;57.30;99304.19;1753898;81;21030;-70
2021/05/21 02:09:22;;;;;;;2.12;1.92;;;;;;;21.41;57.29;99305.27;1742758;81;21144;-71
2021/05/21 02:11:49;;;;;;;2.37;1.87;;;;;;;21.40;57.28;99303.11;1738186;81;21618;-72
2021/05/21 02:14:16;;;;;;;2.22;1.90;;;;;;;21.40;57.29;99307.68;1757745;81;21080;-71
2021/05/21 02:16:42;;;;;;;2.33;1.92;;;;;;;21.39;57.27;99307.41;1760093;81;21340;-70
2021/05/21 02:19:09;;;;;;;2.00;1.90;;;;;;;21.39;57.27;99300.66;1759488;81;21205;-71
2021/05/21 02:21:36;;;;;;;2.55;2.10;;;;;;;21.38;57.26;99305.25;1756632;81;21027;-71
2021/05/21 02:24:05;;;;;;;2.22;2.02;;;;;;;21.38;57.28;99308.46;1756534;81;21067;-71
2021/05/21 02:26:33;;;;;;;2.20;2.00;;;;;;;21.37;57.26;99310.89;1756546;81;21656;-71
2021/05/21 02:28:59;;;;;;;2.70;2.10;;;;;;;21.38;57.26;99321.97;1744968;81;21114;-70
2021/05/21 02:31:25;;;;;;;2.20;2.00;;;;;;;21.37;57.26;99319.00;1712551;82;21573;-70
2021/05/21 02:33:52;;;;;;;3.55;2.10;;;;;;;21.35;57.27;99320.59;1721387;82;21565;-70
2021/05/21 02:36:18;;;;;;;1.92;1.77;;;;;;;21.35;57.28;99322.48;1726484;83;21114;-71
2021/05/21 02:38:46;;;;;;;2.10;1.90;;;;;;;21.35;57.28;99325.19;1707912;82;21100;-71
2021/05/21 02:41:12;;;;;;;1.70;1.60;;;;;;;21.35;57.26;99326.54;1721200;82;21166;-70
2021/05/21 02:43:40;;;;;;;2.40;2.20;;;;;;;21.33;57.26;99324.08;1707898;82;21051;-71
2021/05/21 02:46:07;;;;;;;2.67;1.80;;;;;;;21.34;57.26;99329.78;1708272;82;21103;-71
2021/05/21 02:48:33;;;;;;;2.70;1.80;;;;;;;21.34;57.26;99328.94;1728071;82;21591;-69
2021/05/21 02:51:01;;;;;;;2.50;1.90;;;;;;;21.33;57.25;99325.44;1724144;82;21134;-70
2021/05/21 02:53:27;;;;;;;2.52;1.80;;;;;;;21.33;57.25;99327.33;1713022;81;21095;-70
2021/05/21 02:55:54;;;;;;;1.90;1.80;;;;;;;21.32;57.26;99325.13;1713212;82;21058;-70
2021/05/21 02:58:20;;;;;;;2.00;1.82;;;;;;;21.32;57.23;99323.78;1734285;81;21104;-71
2021/05/21 03:00:47;;;;;;;2.25;2.05;;;;;;;21.30;57.28;99327.27;1725135;82;21067;-71
2021/05/21 03:03:13;;;;;;;2.02;1.70;;;;;;;21.30;57.29;99321.87;1731474;82;21051;-68
2021/05/21 03:05:40;;;;;;;2.27;1.80;;;;;;;21.30;57.30;99331.32;1708468;82;21614;-71
2021/05/21 03:08:06;;;;;;;2.20;1.92;;;;;;;21.31;57.29;99336.22;1707939;82;21059;-70
2021/05/21 03:10:33;;;;;;;2.62;1.80;;;;;;;21.31;57.28;99342.42;1709564;82;21123;-70
2021/05/21 03:13:00;;;;;;;1.80;1.70;;;;;;;21.31;57.29;99345.13;1708302;82;22063;-69
2021/05/21 03:15:28;;;;;;;2.33;1.72;;;;;;;21.31;57.27;99345.13;1713384;82;21107;-72
2021/05/21 03:17:56;;;;;;;2.40;2.20;;;;;;;21.33;57.23;99347.05;1707733;82;21071;-71
2021/05/21 03:20:22;;;;;;;2.65;1.75;;;;;;;21.34;57.22;99355.45;1719456;82;21077;-71
2021/05/21 03:22:49;;;;;;;2.17;1.85;;;;;;;21.34;57.20;99351.40;1745202;82;21060;-71
2021/05/21 03:25:16;;;;;;;1.80;1.70;;;;;;;21.34;57.21;99350.05;1747865;82;21071;-72
2021/05/21 03:27:42;;;;;;;2.10;1.67;;;;;;;21.36;57.21;99353.31;1696011;82;21072;-71
2021/05/21 03:30:11;;;;;;;2.05;1.80;;;;;;;21.36;57.19;99348.42;1719582;82;21582;-70
2021/05/21 03:32:37;;;;;;;2.20;2.00;;;;;;;21.36;57.20;99353.31;1725361;81;21081;-70
2021/05/21 03:35:06;;;;;;;1.90;1.67;;;;;;;21.38;57.17;99353.05;1734883;82;21149;-71
2021/05/21 03:37:33;;;;;;;2.42;2.12;;;;;;;21.39;57.16;99364.15;1731625;82;21036;-71
2021/05/21 03:39:59;;;;;;;2.40;2.00;;;;;;;21.41;57.15;99359.31;1721376;81;21697;-69
2021/05/21 03:42:26;;;;;;;1.65;1.55;;;;;;;21.42;57.10;99363.63;1725318;82;21306;-70
2021/05/21 03:44:53;;;;;;;2.12;1.92;;;;;;;21.44;57.09;99359.38;1738060;82;21095;-71
2021/05/21 03:47:20;;;;;;;1.98;1.77;;;;;;;21.47;57.08;99362.94;1720108;82;21567;-71
2021/05/21 03:49:48;;;;;;;1.70;1.60;;;;;;;21.48;57.03;99367.27;1739857;82;21128;-72
2021/05/21 03:52:14;;;;;;;1.65;1.55;;;;;;;21.49;57.01;99369.72;1730155;82;21092;-74
2021/05/21 03:54:40;;;;;;;1.82;1.67;;;;;;;21.52;57.02;99368.42;1733242;81;21152;-71
2021/05/21 03:57:07;;;;;;;1.90;1.80;;;;;;;21.54;56.98;99373.86;1720681;82;21551;-70
2021/05/21 03:59:34;;;;;;;1.95;1.85;;;;;;;21.56;56.93;99377.13;1735859;82;21608;-70
2021/05/21 04:02:01;;;;;;;1.77;1.67;;;;;;;21.58;56.90;99376.87;1729199;82;21048;-71
2021/05/21 04:04:27;;;;;;;2.40;1.82;;;;;;;21.61;56.82;99373.66;1733655;82;21810;-71
2021/05/21 04:06:56;;;;;;;2.75;1.70;;;;;;;21.65;56.80;99377.50;1732095;82;21197;-69
2021/05/21 04:09:23;;;;;;;2.05;1.87;;;;;;;21.70;56.71;99378.93;1721273;82;21067;-70
2021/05/21 04:11:49;;;;;;;2.58;1.77;;;;;;;21.75;56.66;99387.62;1721582;82;21136;-71
2021/05/21 04:14:17;;;;;;;1.65;1.50;;;;;;;21.79;56.59;99386.09;1736685;82;21047;-70
2021/05/21 04:16:43;;;;;;;1.60;1.50;;;;;;;21.82;56.57;99388.81;1718665;82;22253;-69
2021/05/21 04:19:10;;;;;;;1.92;1.72;;;;;;;21.85;56.58;99386.43;1727282;82;21084;-74
2021/05/21 04:21:36;;;;;;;1.77;1.50;;;;;;;21.89;56.52;99380.80;1732813;80;21052;-71
2021/05/21 04:24:05;;;;;;;2.42;1.45;;;;;;;21.94;56.46;99385.44;1738680;82;21139;-71
2021/05/21 04:26:32;;;;;;;1.82;1.52;;;;;;;21.97;56.43;99387.11;1726723;82;21049;-70
2021/05/21 04:28:58;;;;;;;1.70;1.60;;;;;;;22.00;56.38;99389.88;1724917;82;21095;-71
2021/05/21 04:31:26;;;;;;;1.50;1.40;;;;;;;22.03;56.35;99394.76;1729573;80;21574;-70
2021/05/21 04:33:52;;;;;;;1.70;1.60;;;;;;;22.04;56.30;99392.35;1736290;82;21052;-69
2021/05/21 04:36:19;;;;;;;2.87;1.67;;;;;;;22.08;56.30;99398.89;1722789;80;21076;-70
2021/05/21 04:38:46;;;;;;;1.82;1.70;;;;;;;22.11;56.30;99404.31;1717440;82;21043;-70
2021/05/21 04:41:13;;;;;;;1.72;1.62;;;;;;;22.14;56.27;99405.98;1719081;82;21220;-70
2021/05/21 04:43:40;;;;;;;2.47;2.02;;;;;;;22.16;56.27;99403.84;1719764;80;21076;-70
2021/05/21 04:46:06;;;;;;;2.67;1.70;;;;;;;22.18;56.23;99403.05;1731707;82;21177;-71
2021/05/21 04:48:34;;;;;;;1.87;1.77;;;;;;;22.21;56.24;99409.84;1729371;81;21123;-72
2021/05/21 04:51:00;;;;;;;2.05;1.85;;;;;;;22.23;56.22;99419.88;1737791;81;21042;-73
2021/05/21 04:53:27;;;;;;;2.05;1.82;;;;;;;22.26;56.20;99418.59;1746682;81;21094;-72
2021/05/21 04:55:54;;;;;;;1.70;1.60;;;;;;;22.29;56.18;99419.43;1737105;80;21093;-72
2021/05/21 04:58:21;;;;;;;1.85;1.67;;;;;;;22.32;56.17;99428.41;1730921;81;21527;-71
2021/05/21 05:00:47;;;;;;;1.80;1.70;;;;;;;22.35;56.17;99431.97;1721377;81;21061;-71
2021/05/21 05:03:17;;;;;;;2.12;1.70;;;;;;;22.38;56.12;99433.61;1730636;80;21094;-71
2021/05/21 05:05:42;;;;;;;1.82;1.65;;;;;;;22.42;56.12;99429.86;1725751;80;21587;-71
2021/05/21 05:08:10;;;;;;;1.77;1.67;;;;;;;22.44;56.09;99439.09;1727805;81;21050;-70
2021/05/21 05:10:36;;;;;;;2.08;1.40;;;;;;;22.47;56.05;99435.89;1732332;80;21148;-71
2021/05/21 05:13:03;;;;;;;2.80;1.65;;;;;;;22.50;56.01;99443.48;1753386;81;21585;-71
2021/05/21 05:15:32;;;;;;;2.80;1.80;;;;;;;22.53;55.97;99438.92;1750445;81;21081;-71
2021/05/21 05:17:59;;;;;;;1.60;1.50;;;;;;;22.57;55.97;99438.70;1732278;80;21653;-71
2021/05/21 05:20:26;;;;;;;1.87;1.70;;;;;;;22.58;55.91;99433.03;1739754;81;21065;-71
2021/05/21 05:25:42;;;;;;;1.77;1.65;;;;;;;22.69;55.89;99427.17;1813582;77;22793;-73
2021/05/21 05:28:11;;;;;;;1.60;1.50;;;;;;;22.64;55.93;99435.77;1759678;78;21056;-71
2021/05/21 05:30:39;;;;;;;1.80;1.70;;;;;;;22.67;55.86;99436.63;1761637;80;21161;-72
2021/05/21 05:33:05;;;;;;;1.80;1.70;;;;;;;22.70;55.79;99440.20;1757369;80;21028;-72
2021/05/21 05:35:32;;;;;;;2.75;1.82;;;;;;;22.74;55.75;99448.89;1757376;80;21628;-72
2021/05/21 05:37:58;;;;;;;2.08;1.70;;;;;;;22.78;55.71;99447.30;1777295;78;21048;-71
2021/05/21 05:40:27;;;;;;;1.82;1.72;;;;;;;22.82;55.62;99448.16;1770204;80;21077;-72
2021/05/21 05:42:53;;;;;;;1.87;1.77;;;;;;;22.84;55.50;99451.43;1767981;80;21104;-72
2021/05/21 05:45:19;;;;;;;3.80;1.70;;;;;;;22.87;55.63;99451.73;1758803;80;20976;-70
2021/05/21 05:47:46;;;;;;;2.12;1.70;;;;;;;22.91;55.63;99451.50;1758370;80;21639;-72
2021/05/21 05:50:12;;;;;;;1.70;1.60;;;;;;;22.93;55.58;99456.12;1758892;78;21633;-71
2021/05/21 05:52:39;;;;;;;2.10;1.50;;;;;;;22.97;55.51;99453.73;1766938;80;21564;-72
2021/05/21 05:55:07;;;;;;;1.67;1.57;;;;;;;22.99;55.45;99452.93;1777343;80;21072;-73
2021/05/21 05:57:33;;;;;;;2.08;1.87;;;;;;;23.03;55.39;99458.69;1771698;80;21100;-73
2021/05/21 06:00:00;;;;;;;1.70;1.47;;;;;;;23.06;55.34;99453.55;1778053;79;21105;-72
2021/05/21 06:02:27;;;;;;;1.90;1.75;;;;;;;23.07;55.27;99451.13;1779030;80;21073;-70
2021/05/21 06:04:53;;;;;;;1.62;1.52;;;;;;;23.10;55.22;99452.50;1778076;79;21108;-72
2021/05/21 06:07:19;;;;;;;1.85;1.75;;;;;;;23.11;55.18;99453.60;1764756;79;21085;-74
2021/05/21 06:09:46;;;;;;;2.10;1.75;;;;;;;23.13;55.12;99455.52;1770328;78;21061;-73
2021/05/21 06:12:12;;;;;;;1.80;1.70;;;;;;;23.15;55.03;99447.13;1762849;79;21097;-73
2021/05/21 06:14:39;;;;;;;1.80;1.70;;;;;;;23.16;55.03;99449.59;1781606;79;21126;-73
2021/05/21 06:17:06;;;;;;;1.67;1.50;;;;;;;23.19;54.98;99444.73;1771542;78;21052;-72
2021/05/21 06:19:32;;;;;;;1.90;1.60;;;;;;;23.19;54.97;99440.12;1769147;79;21599;-72
2021/05/21 06:21:59;;;;;;;2.58;1.90;;;;;;;23.20;54.92;99443.13;1781250;80;21576;-72
2021/05/21 06:24:26;;;;;;;1.82;1.70;;;;;;;23.22;54.89;99446.91;1764353;78;21069;-72
2021/05/21 06:29:37;;;;;;;1.92;1.70;;;;;;;23.25;54.86;99452.63;1757871;80;21085;-72
2021/05/21 06:32:04;;;;;;;2.02;1.60;;;;;;;23.26;54.88;99456.98;1770759;80;21079;-73
2021/05/21 06:34:31;;;;;;;1.77;1.47;;;;;;;23.27;54.89;99455.89;1767187;78;21259;-71
2021/05/21 06:36:57;;;;;;;1.87;1.60;;;;;;;23.29;54.93;99454.28;1754224;80;21052;-71
2021/05/21 06:39:24;;;;;;;1.82;1.72;;;;;;;23.30;54.90;99449.97;1771317;79;21129;-72
2021/05/21 06:41:51;;;;;;;1.72;1.62;;;;;;;23.32;54.88;99451.07;1768827;80;21088;-71
2021/05/21 06:44:18;;;;;;;2.50;1.80;;;;;;;23.33;54.84;99457.59;1751409;79;21592;-70
2021/05/21 06:46:44;;;;;;;1.77;1.67;;;;;;;23.34;54.83;99453.80;1748925;80;21061;-71
2021/05/21 06:49:14;;;;;;;2.02;1.70;;;;;;;23.39;54.78;99464.39;1753770;79;21576;-72
2021/05/21 06:51:41;;;;;;;1.90;1.70;;;;;;;23.39;54.75;99457.61;1748165;80;21591;-71
2021/05/21 06:54:08;;;;;;;2.92;2.02;;;;;;;23.40;54.69;99461.42;1762386;79;21056;-71
2021/05/21 06:56:36;;;;;;;1.75;1.65;;;;;;;23.42;54.68;99458.46;1759582;79;21089;-72
2021/05/21 06:59:04;;;;;;;1.90;1.70;;;;;;;23.43;54.63;99457.37;1748687;80;21611;-73
2021/05/21 07:01:30;;;;;;;1.80;1.52;;;;;;;23.45;54.63;99457.92;1761250;80;21615;-71
2021/05/21 07:03:58;;;;;;;1.55;1.45;;;;;;;23.46;54.60;99469.87;1748897;79;21104;-71
2021/05/21 07:06:24;;;;;;;2.87;1.87;;;;;;;23.48;54.59;99461.48;1749000;80;21494;-71
2021/05/21 07:08:51;;;;;;;2.10;1.80;;;;;;;23.49;54.53;99468.01;1767087;78;21669;-71
2021/05/21 07:11:17;;;;;;;2.22;1.70;;;;;;;23.51;54.55;99465.05;1749117;80;21398;-71
2021/05/21 07:13:44;;;;;;;1.60;1.50;;;;;;;23.53;54.49;99465.59;1752960;79;21592;-73
2021/05/21 07:16:10;;;;;;;1.50;1.40;;;;;;;23.55;54.48;99466.16;1748817;79;21113;-73
2021/05/21 07:18:37;;;;;;;2.00;1.80;;;;;;;23.57;54.46;99469.97;1767045;79;21032;-72
2021/05/21 07:21:04;;;;;;;2.15;1.62;;;;;;;23.59;54.36;99466.45;1758733;80;21125;-71
2021/05/21 07:23:30;;;;;;;2.65;1.60;;;;;;;23.60;54.33;99475.66;1794363;78;21068;-72
2021/05/21 07:25:57;;;;;;;3.47;1.98;;;;;;;23.61;54.32;99477.85;1751595;78;21024;-72
2021/05/21 07:28:25;;;;;;;2.17;1.72;;;;;;;23.60;54.27;99479.72;1768219;80;21322;-72
2021/05/21 07:30:52;;;;;;;1.90;1.60;;;;;;;23.63;54.29;99487.35;1752854;79;21097;-72
2021/05/21 07:33:19;;;;;;;1.60;1.50;;;;;;;23.63;54.28;99490.61;1759027;79;21077;-72
2021/05/21 07:35:45;;;;;;;1.62;1.50;;;;;;;23.63;54.25;99488.70;1744114;80;21073;-72
2021/05/21 07:38:12;;;;;;;2.27;1.60;;;;;;;23.64;54.23;99494.94;1745163;79;21088;-72
2021/05/21 07:40:39;;;;;;;1.52;1.42;;;;;;;23.65;54.16;99489.27;1744624;79;21611;-73
2021/05/21 07:43:05;;;;;;;1.87;1.67;;;;;;;23.67;54.16;99489.81;1746594;80;21412;-71
2021/05/21 07:45:31;;;;;;;2.15;1.70;;;;;;;23.68;54.15;99490.11;1748356;79;21117;-72
2021/05/21 07:47:58;;;;;;;2.02;1.82;;;;;;;23.69;54.12;99492.27;1757449;79;21061;-72
2021/05/21 07:50:24;;;;;;;1.75;1.65;;;;;;;23.70;54.14;99499.31;1744243;80;21143;-72
2021/05/21 07:52:51;;;;;;;2.58;1.60;;;;;;;23.72;54.13;99501.22;1745123;80;21121;-71
2021/05/21 07:55:18;;;;;;;1.60;1.50;;;;;;;23.72;54.03;99490.37;1746012;80;21041;-71
2021/05/21 07:57:44;;;;;;;1.77;1.67;;;;;;;23.74;53.98;99490.96;1746625;80;21623;-71
2021/05/21 08:00:13;;;;;;;1.95;1.72;;;;;;;23.76;53.96;99490.16;1746595;79;21073;-72
2021/05/21 08:02:41;;;;;;;1.90;1.70;;;;;;;23.78;53.94;99491.23;1759450;80;21092;-71
2021/05/21 08:05:08;;;;;;;1.70;1.60;;;;;;;23.81;53.93;99494.82;1725425;80;21078;-72
2021/05/21 08:07:35;;;;;;;1.70;1.60;;;;;;;23.80;53.92;99489.11;1748086;80;21545;-71
2021/05/21 08:10:06;;;;;;;1.45;1.30;;;;;;;23.84;53.91;99486.17;1744954;80;21077;-71
2021/05/21 08:12:33;;;;;;;1.70;1.60;;;;;;;23.85;53.87;99483.17;1759343;80;21563;-71
2021/05/21 08:14:59;;;;;;;1.70;1.60;;;;;;;23.87;53.88;99483.73;1743857;80;21560;-71
2021/05/21 08:17:26;;;;;;;2.05;1.67;;;;;;;23.89;53.87;99482.11;1743690;79;21592;-72
2021/05/21 08:19:52;;;;;;;2.02;1.52;;;;;;;23.90;53.89;99485.92;1746662;80;21591;-70
2021/05/21 08:22:19;;;;;;;1.62;1.40;;;;;;;23.93;53.88;99483.22;1744335;80;21086;-72
2021/05/21 08:24:45;;;;;;;1.75;1.65;;;;;;;23.94;53.91;99487.03;1759840;79;21125;-72
2021/05/21 08:27:12;;;;;;;1.50;1.40;;;;;;;23.97;53.85;99484.88;1750242;80;21109;-73
2021/05/21 08:29:38;;;;;;;1.60;1.40;;;;;;;23.98;53.77;99486.52;1750684;79;21097;-74
2021/05/21 08:32:05;;;;;;;1.87;1.60;;;;;;;23.99;53.82;99488.98;1746925;80;21046;-72
2021/05/21 08:34:31;;;;;;;1.62;1.52;;;;;;;24.01;53.80;99488.17;1773287;79;21093;-71
2021/05/21 08:36:58;;;;;;;1.72;1.50;;;;;;;24.02;53.79;99484.36;1766491;80;21061;-71
2021/05/21 08:39:24;;;;;;;1.70;1.60;;;;;;;24.04;53.73;99487.62;1761678;80;21070;-72
2021/05/21 08:41:53;;;;;;;2.70;1.70;;;;;;;24.05;53.62;99489.28;1748934;80;21116;-71
2021/05/21 08:44:21;;;;;;;1.80;1.47;;;;;;;24.07;53.57;99489.83;1733567;80;21055;-72
2021/05/21 08:46:47;;;;;;;3.35;1.65;;;;;;;24.09;53.57;99489.02;1767554;80;21618;-71
2021/05/21 08:49:15;;;;;;;1.40;1.30;;;;;;;24.12;53.49;99487.67;1757454;80;21655;-72
2021/05/21 08:51:41;;;;;;;1.60;1.50;;;;;;;24.13;53.38;99487.41;1745301;80;21077;-72
2021/05/21 08:54:09;;;;;;;1.62;1.52;;;;;;;24.15;53.34;99492.58;1757119;79;21097;-72
2021/05/21 08:56:35;;;;;;;1.82;1.70;;;;;;;24.19;53.28;99491.52;1762001;80;22232;-72
2021/05/21 08:59:03;;;;;;;1.60;1.50;;;;;;;24.22;53.26;99495.05;1762379;78;21065;-71
2021/05/21 09:01:30;;;;;;;1.67;1.57;;;;;;;24.24;53.22;99499.14;1753118;78;21152;-73
2021/05/21 09:04:01;;;;;;;1.70;1.60;;;;;;;24.28;53.17;99498.89;1754544;80;21073;-73
2021/05/21 09:06:30;;;;;;;1.90;1.55;;;;;;;24.32;53.13;99492.40;1751612;79;27597;-71
2021/05/21 09:08:59;;;;;;;1.70;1.30;;;;;;;24.35;53.15;99498.63;1749650;79;21148;-72
2021/05/21 09:11:36;;;;;;;1.70;1.60;;;;;;;24.40;53.14;99504.64;1767102;80;21768;-72
2021/05/21 09:14:18;;;;;;;1.60;1.50;;;;;;;24.43;53.18;99502.73;1776880;80;21105;-71
2021/05/21 09:16:46;;;;;;;1.40;1.32;;;;;;;24.47;53.23;99506.55;1760211;80;21085;-72
2021/05/21 09:19:22;;;;;;;1.77;1.67;;;;;;;24.49;53.25;99510.66;1748630;80;21224;-73
2021/05/21 09:22:01;;;;;;;1.45;1.35;;;;;;;24.54;53.35;99516.66;1749301;80;21046;-72
2021/05/21 09:24:39;;;;;;;1.77;1.65;;;;;;;24.57;53.40;99511.23;1748735;80;21180;-72
2021/05/21 09:27:06;;;;;;;1.57;1.47;;;;;;;24.61;53.42;99504.19;1765075;80;21104;-73
2021/05/21 09:29:50;;;;;;;1.50;1.40;;;;;;;24.66;53.34;99497.42;1765139;80;21096;-73
2021/05/21 09:32:31;;;;;;;1.60;1.40;;;;;;;24.71;53.28;99502.88;1757090;79;21043;-72
2021/05/21 09:35:19;;;;;;;1.40;1.30;;;;;;;24.75;53.25;99508.59;1766258;79;21076;-72
2021/05/21 09:37:55;;;;;;;1.60;1.50;;;;;;;24.79;53.19;99505.62;1747988;80;22407;-74
2021/05/21 09:40:23;;;;;;;1.32;1.22;;;;;;;24.84;53.04;99509.16;1761549;80;21112;-73
2021/05/21 09:43:03;;;;;;;1.50;1.40;;;;;;;24.90;52.85;99504.56;1769253;79;21081;-72
2021/05/21 09:45:34;;;;;;;1.80;1.50;;;;;;;24.97;52.62;99501.58;1775818;79;21622;-71
2021/05/21 09:48:04;;;;;;;2.15;1.30;;;;;;;25.04;52.47;99503.50;1765566;79;21167;-72
2021/05/21 09:50:38;;;;;;;1.30;1.20;;;;;;;25.10;52.35;99497.78;1768531;79;22200;-72
2021/05/21 09:53:24;;;;;;;3.58;1.55;;;;;;;25.17;52.20;99498.89;1762771;80;21053;-70
2021/05/21 09:56:03;;;;;;;1.50;1.40;;;;;;;25.24;52.05;99504.08;1762726;80;21525;-71
2021/05/21 09:58:40;;;;;;;1.50;1.40;;;;;;;25.30;51.91;99505.71;1759977;80;21089;-72
2021/05/21 10:01:20;;;;;;;1.87;1.40;;;;;;;25.37;51.73;99513.06;1763683;79;21061;-71
2021/05/21 10:03:54;;;;;;;1.47;1.37;;;;;;;25.46;51.71;99505.19;1748838;80;21087;-72
2021/05/21 10:06:23;;;;;;;1.50;1.40;;;;;;;25.52;51.61;99500.02;1769851;80;21559;-72
2021/05/21 10:08:52;;;;;;;1.92;1.35;;;;;;;25.60;51.49;99503.54;1752194;79;21100;-73
2021/05/21 10:11:18;;;;;;;1.65;1.40;;;;;;;25.69;51.34;99492.91;1749550;79;21148;-71
2021/05/21 10:13:46;;;;;;;1.50;1.40;;;;;;;25.75;51.28;99483.67;1748525;80;21087;-71
2021/05/21 10:16:15;;;;;;;1.30;1.20;;;;;;;25.85;51.20;99494.53;1764698;79;21113;-72
2021/05/21 10:18:53;;;;;;;1.95;1.62;;;;;;;25.94;51.13;99498.07;1751685;80;21164;-71
2021/05/21 10:21:20;;;;;;;1.65;1.35;;;;;;;26.02;51.00;99498.34;1755751;78;21152;-72
2021/05/21 10:24:04;;;;;;;1.60;1.50;;;;;;;26.12;50.84;99494.77;1766191;78;22186;-73
2021/05/21 10:26:34;;;;;;;1.67;1.52;;;;;;;26.21;50.69;99488.19;1766459;80;21567;-71
2021/05/21 10:29:08;;;;;;;1.45;1.35;;;;;;;26.30;50.64;99482.45;1753252;80;21086;-72
2021/05/21 10:31:35;;;;;;;1.60;1.45;;;;;;;26.41;50.55;99490.04;1767162;79;21121;-72
2021/05/21 10:34:14;;;;;;;1.40;1.30;;;;;;;26.49;50.48;99490.25;1770936;80;21098;-72
2021/05/21 10:37:19;;;;;;;1.85;1.50;;;;;;;26.58;50.33;99488.30;1762382;79;21113;-72
2021/05/21 10:40:24;;;;;;;1.50;1.40;;;;;;;26.68;50.17;99489.66;1752746;80;21176;-72
2021/05/21 10:43:16;;;;;;;1.60;1.47;;;;;;;26.77;50.06;99491.23;1759818;80;21099;-72
2021/05/21 10:45:54;;;;;;;1.50;1.40;;;;;;;26.87;49.98;99483.02;1746569;80;21112;-72
2021/05/21 10:48:26;;;;;;;1.30;1.20;;;;;;;26.94;49.91;99482.13;1744290;80;21081;-73
2021/05/21 10:51:11;;;;;;;1.30;1.20;;;;;;;27.03;49.88;99484.52;1744488;80;21132;-72
2021/05/21 10:53:43;;;;;;;1.37;1.27;;;;;;;27.13;49.81;99479.55;1743578;80;21112;-71
2021/05/21 10:56:10;;;;;;;1.67;1.57;;;;;;;27.21;49.79;99471.31;1742918;80;21634;-73
2021/05/21 10:58:44;;;;;;;1.27;1.27;;;;;;;27.28;49.74;99480.58;1745582;80;21085;-71
2021/05/21 11:01:18;;;;;;;1.92;1.70;;;;;;;27.31;49.64;99479.42;1750235;80;21061;-72
2021/05/21 11:04:05;;;;;;;1.60;1.50;;;;;;;27.36;49.57;99490.86;1751784;78;21141;-71
2021/05/21 11:06:45;;;;;;;1.20;1.10;;;;;;;27.40;49.49;99493.28;1744945;79;21081;-73
2021/05/21 11:09:13;;;;;;;1.98;1.50;;;;;;;27.42;49.54;99481.53;1748494;79;21635;-72
2021/05/21 11:12:05;;;;;;;1.40;1.30;;;;;;;27.48;49.56;99480.94;1760398;79;21164;-73
2021/05/21 11:14:42;;;;;;;1.42;1.32;;;;;;;27.54;49.61;99478.42;1766346;79;21077;-72
2021/05/21 11:17:23;;;;;;;1.17;1.10;;;;;;;27.63;49.55;99479.44;1749606;79;21692;-72
2021/05/21 11:19:57;;;;;;;1.20;1.10;;;;;;;27.72;49.42;99473.62;1754235;79;21096;-71
2021/05/21 11:22:36;;;;;;;1.30;1.12;;;;;;;27.82;49.25;99478.97;1755763;79;21733;-74
2021/05/21 11:25:08;;;;;;;1.12;1.12;;;;;;;27.93;49.05;99470.69;1749827;79;21121;-74
2021/05/21 11:27:36;;;;;;;1.20;1.20;;;;;;;28.04;48.90;99468.11;1749919;79;21027;-72
2021/05/21 11:30:09;;;;;;;1.98;1.20;;;;;;;28.16;48.74;99470.42;1743520;79;21121;-72
2021/05/21 11:32:38;;;;;;;1.10;1.10;;;;;;;28.27;48.64;99475.22;1746565;78;21057;-73
2021/05/21 11:35:08;;;;;;;1.32;1.27;;;;;;;28.39;48.56;99478.34;1747308;79;21809;-73
2021/05/21 11:37:36;;;;;;;1.40;1.30;;;;;;;28.50;48.39;99476.30;1748495;79;21073;-73
2021/05/21 11:40:04;;;;;;;1.17;1.17;;;;;;;28.61;48.21;99472.36;1746401;80;21638;-74
2021/05/21 11:42:31;;;;;;;1.17;1.17;;;;;;;28.74;48.07;99478.98;1750202;79;21623;-73
2021/05/21 11:44:58;;;;;;;1.32;1.22;;;;;;;28.85;47.89;99477.73;1743365;79;21112;-73
2021/05/21 11:47:35;;;;;;;1.20;1.10;;;;;;;28.96;47.79;99470.20;1743502;79;21108;-74